createdAt,value
2018-03-22T00:00:50.326Z,98275.38
2018-03-22T00:03:24.635Z,98274.62
2018-03-22T00:05:55.127Z,98279.75
2018-03-22T00:08:25.804Z,98275.11
2018-03-22T00:10:56.529Z,98278.36
2018-03-22T00:13:26.685Z,98275.91
2018-03-22T00:15:59.628Z,98273.11
2018-03-22T00:18:30.821Z,98270.09
2018-03-22T00:21:00.998Z,98281.89
2018-03-22T00:23:33.347Z,98281.16
2018-03-22T00:26:06.988Z,98275.67
2018-03-22T00:28:38.388Z,98277.59
2018-03-22T00:31:10.531Z,98270.75
2018-03-22T00:33:41.718Z,98270.49
2018-03-22T00:36:14.804Z,98271.56
2018-03-22T00:38:45.723Z,98270.13
2018-03-22T00:41:15.966Z,98270.74
2018-03-22T00:43:47.091Z,98266.34
2018-03-22T00:46:19.206Z,98265.06
2018-03-22T00:48:50.022Z,98269.16
2018-03-22T00:51:21.572Z,98257.69
2018-03-22T00:53:52.026Z,98254.22
2018-03-22T00:56:23.265Z,98251.91
2018-03-22T00:58:54.642Z,98244.26
2018-03-22T01:01:26.656Z,98241.97
2018-03-22T01:03:57.780Z,98242.13
2018-03-22T01:06:30.861Z,98237.28
2018-03-22T01:09:02.174Z,98240.99
2018-03-22T01:11:32.827Z,98240.87
2018-03-22T01:14:07.575Z,98237.34
2018-03-22T01:16:40.372Z,98234.91
2018-03-22T01:19:11.863Z,98239.52
2018-03-22T01:21:43.399Z,98231.27
2018-03-22T01:24:16.214Z,98228.23
2018-03-22T01:26:47.313Z,98221.97
2018-03-22T01:29:19.029Z,98216.41
2018-03-22T01:31:48.642Z,98211.71
2018-03-22T01:34:18.655Z,98212.59
2018-03-22T01:36:50.111Z,98215.64
2018-03-22T01:39:20.785Z,98218.31
2018-03-22T01:41:51.801Z,98216.25
2018-03-22T01:44:21.435Z,98212.72
2018-03-22T01:46:53.531Z,98217.42
2018-03-22T01:49:24.562Z,98215.98
2018-03-22T01:51:55.803Z,98214.16
2018-03-22T01:54:29.297Z,98210.13
2018-03-22T01:56:59.646Z,98211.84
2018-03-22T01:59:29.736Z,98203.83
2018-03-22T02:02:00.550Z,98202.31
2018-03-22T02:04:32.622Z,98201.08
2018-03-22T02:07:02.782Z,98192.38
2018-03-22T02:09:32.747Z,98192.79
2018-03-22T02:12:05.603Z,98198.10
2018-03-22T02:14:36.413Z,98189.05
2018-03-22T02:17:08.400Z,98188.24
2018-03-22T02:19:39.534Z,98187.50
2018-03-22T02:22:10.057Z,98188.05
2018-03-22T02:24:40.877Z,98183.75
2018-03-22T02:27:11.344Z,98188.92
2018-03-22T02:29:44.125Z,98189.20
2018-03-22T02:32:14.428Z,98178.24
2018-03-22T02:34:44.414Z,98187.03
2018-03-22T02:37:14.386Z,98172.92
2018-03-22T02:39:48.086Z,98179.95
2018-03-22T02:42:20.467Z,98176.83
2018-03-22T02:44:51.428Z,98182.36
2018-03-22T02:47:22.855Z,98166.97
2018-03-22T02:49:55.564Z,98168.84
2018-03-22T02:52:25.885Z,98157.89
2018-03-22T02:54:57.306Z,98161.12
2018-03-22T02:57:29.921Z,98157.11
2018-03-22T03:00:01.157Z,98160.17
2018-03-22T03:02:33.142Z,98156.67
2018-03-22T03:05:04.044Z,98156.02
2018-03-22T03:07:34.871Z,98153.97
2018-03-22T03:10:05.690Z,98150.31
2018-03-22T03:12:36.645Z,98151.42
2018-03-22T03:15:06.463Z,98148.85
2018-03-22T03:17:36.846Z,98146.44
2018-03-22T03:20:07.946Z,98146.70
2018-03-22T03:22:39.635Z,98147.74
2018-03-22T03:25:10.618Z,98150.95
2018-03-22T03:27:41.566Z,98142.50
2018-03-22T03:30:13.003Z,98147.06
2018-03-22T03:32:44.718Z,98141.30
2018-03-22T03:35:14.829Z,98148.91
2018-03-22T03:37:44.806Z,98143.23
2018-03-22T03:40:14.897Z,98140.77
2018-03-22T03:42:46.577Z,98132.09
2018-03-22T03:45:16.792Z,98137.23
2018-03-22T03:47:48.559Z,98130.03
2018-03-22T03:50:20.462Z,98134.17
2018-03-22T03:52:55.758Z,98129.86
2018-03-22T03:55:25.738Z,98133.55
2018-03-22T03:57:57.310Z,98132.67
2018-03-22T04:00:27.446Z,98133.37
2018-03-22T04:02:58.237Z,98132.33
2018-03-22T04:05:29.224Z,98120.38
2018-03-22T04:08:01.458Z,98124.02
2018-03-22T04:10:31.742Z,98126.05
2018-03-22T04:13:03.987Z,98116.42
2018-03-22T04:15:34.389Z,98111.94
2018-03-22T04:18:05.241Z,98119.98
2018-03-22T04:20:35.096Z,98117.45
2018-03-22T04:23:05.877Z,98111.17
2018-03-22T04:25:36.341Z,98108.33
2018-03-22T04:28:06.278Z,98101.25
2018-03-22T04:30:36.232Z,98101.48
2018-03-22T04:33:07.149Z,98106.95
2018-03-22T04:35:37.229Z,98110.22
2018-03-22T04:38:07.282Z,98101.88
2018-03-22T04:40:40.397Z,98097.77
2018-03-22T04:43:11.367Z,98107.15
2018-03-22T04:45:43.544Z,98108.31
2018-03-22T04:48:15.322Z,98109.80
2018-03-22T04:50:46.943Z,98105.27
2018-03-22T04:53:21.231Z,98100.23
2018-03-22T04:55:52.483Z,98094.66
2018-03-22T04:58:22.686Z,98093.03
2018-03-22T05:00:53.568Z,98092.27
2018-03-22T05:03:23.879Z,98090.84
2018-03-22T05:05:54.176Z,98088.06
2018-03-22T05:08:24.262Z,98092.11
2018-03-22T05:10:56.183Z,98093.33
2018-03-22T05:13:29.357Z,98091.14
2018-03-22T05:16:00.683Z,98094.19
2018-03-22T05:18:30.889Z,98092.08
2018-03-22T05:21:06.064Z,98086.28
2018-03-22T05:23:38.117Z,98087.94
2018-03-22T05:26:08.822Z,98080.39
2018-03-22T05:28:38.939Z,98080.61
2018-03-22T05:31:10.757Z,98073.06
2018-03-22T05:33:40.544Z,98072.39
2018-03-22T05:36:17.811Z,98067.23
2018-03-22T05:38:51.380Z,98065.46
2018-03-22T05:41:22.541Z,98068.59
2018-03-22T05:43:53.190Z,98067.94
2018-03-22T05:46:23.218Z,98067.22
2018-03-22T05:48:55.577Z,98064.03
2018-03-22T05:51:27.870Z,98062.67
2018-03-22T05:53:58.467Z,98063.14
2018-03-22T05:56:29.590Z,98055.40
2018-03-22T05:59:02.633Z,98058.06
2018-03-22T06:01:34.975Z,98052.28
2018-03-22T06:04:05.774Z,98054.44
2018-03-22T06:06:38.652Z,98050.36
2018-03-22T06:09:08.809Z,98044.86
2018-03-22T06:11:39.549Z,98046.41
2018-03-22T06:14:12.419Z,98039.20
2018-03-22T06:16:43.406Z,98033.72
2018-03-22T06:19:15.460Z,98031.89
2018-03-22T06:21:46.086Z,98023.09
2018-03-22T06:24:15.934Z,98029.17
2018-03-22T06:26:49.932Z,98019.77
2018-03-22T06:29:21.808Z,98014.82
2018-03-22T06:31:53.247Z,98008.17
2018-03-22T06:34:24.218Z,98008.58
2018-03-22T06:36:55.291Z,98000.67
2018-03-22T06:39:27.202Z,98000.29
2018-03-22T06:41:58.539Z,97997.73
2018-03-22T06:44:29.583Z,97994.55
2018-03-22T06:47:02.430Z,97997.31
2018-03-22T06:49:33.491Z,97990.64
2018-03-22T06:52:04.036Z,97987.36
2018-03-22T06:54:35.244Z,97987.34
2018-03-22T06:57:06.851Z,97989.80
2018-03-22T06:59:36.982Z,97993.50
2018-03-22T07:02:21.623Z,97988.91
2018-03-22T07:04:53.707Z,97979.51
2018-03-22T07:07:24.607Z,97980.36
2018-03-22T07:09:59.243Z,97978.36
2018-03-22T07:12:30.454Z,97975.42
2018-03-22T07:15:02.296Z,97977.66
2018-03-22T07:17:33.609Z,97976.14
2018-03-22T07:20:05.048Z,97973.01
2018-03-22T07:22:35.467Z,97969.13
2018-03-22T07:25:05.743Z,97963.28
2018-03-22T07:27:37.003Z,97962.06
2018-03-22T07:30:08.877Z,97961.33
2018-03-22T07:32:38.581Z,97953.75
2018-03-22T07:35:09.423Z,97949.63
2018-03-22T07:37:39.380Z,97945.33
2018-03-22T07:40:09.737Z,97943.05
2018-03-22T07:42:39.999Z,97941.44
2018-03-22T07:45:10.749Z,97941.55
2018-03-22T07:47:42.528Z,97933.78
2018-03-22T07:50:13.511Z,97932.08
2018-03-22T07:52:44.334Z,97927.23
2018-03-22T07:55:16.613Z,97932.03
2018-03-22T07:57:46.797Z,97929.97
2018-03-22T08:00:18.796Z,97922.05
2018-03-22T08:02:49.409Z,97923.69
2018-03-22T08:05:21.245Z,97911.00
2018-03-22T08:07:52.582Z,97917.12
2018-03-22T08:10:24.971Z,97915.58
2018-03-22T08:12:58.866Z,97914.68
2018-03-22T08:15:28.830Z,97913.03
2018-03-22T08:17:59.765Z,97902.80
2018-03-22T08:20:30.592Z,97900.13
2018-03-22T08:23:01.682Z,97897.26
2018-03-22T08:25:33.092Z,97887.57
2018-03-22T08:28:05.912Z,97893.77
2018-03-22T08:30:36.829Z,97883.91
2018-03-22T08:33:10.415Z,97890.58
2018-03-22T08:35:46.933Z,97883.36
2018-03-22T08:38:20.497Z,97880.95
2018-03-22T08:40:52.319Z,97878.61
2018-03-22T08:43:23.592Z,97873.58
2018-03-22T08:45:53.639Z,97870.72
2018-03-22T08:48:29.146Z,97860.17
2018-03-22T08:51:01.716Z,97853.20
2018-03-22T08:53:31.811Z,97855.86
2018-03-22T08:56:02.937Z,97857.23
2018-03-22T08:58:36.243Z,97860.94
2018-03-22T09:01:06.938Z,97858.64
2018-03-22T09:03:37.935Z,97853.80
2018-03-22T09:06:09.322Z,97846.69
2018-03-22T09:08:39.771Z,97846.75
2018-03-22T09:11:09.792Z,97841.33
2018-03-22T09:13:41.805Z,97844.80
2018-03-22T09:16:12.849Z,97842.05
2018-03-22T09:18:46.688Z,97838.53
2018-03-22T09:21:19.893Z,97836.66
2018-03-22T09:23:50.319Z,97829.78
2018-03-22T09:26:20.495Z,97831.02
2018-03-22T09:28:50.814Z,97825.78
2018-03-22T09:31:22.238Z,97810.93
2018-03-22T09:33:52.341Z,97810.37
2018-03-22T09:36:26.568Z,97807.78
2018-03-22T09:38:56.864Z,97803.09
2018-03-22T09:41:27.496Z,97801.06
2018-03-22T09:44:00.445Z,97788.02
2018-03-22T09:46:30.630Z,97794.14
2018-03-22T09:49:00.868Z,97785.11
2018-03-22T09:51:31.150Z,97781.00
2018-03-22T09:54:02.709Z,97779.75
2018-03-22T09:56:33.235Z,97766.97
2018-03-22T09:59:08.330Z,97768.87
2018-03-22T10:01:39.641Z,97763.52
2018-03-22T10:04:13.467Z,97755.44
2018-03-22T10:12:30.713Z,97742.03
2018-03-22T10:15:01.603Z,97738.39
2018-03-22T10:17:34.668Z,97727.14
2018-03-22T10:20:04.909Z,97723.17
2018-03-22T10:25:49.585Z,97713.87
2018-03-22T10:28:20.700Z,97708.06
2018-03-22T10:30:51.341Z,97698.70
2018-03-22T10:33:23.142Z,97697.09
2018-03-22T10:35:54.307Z,97689.05
2018-03-22T10:38:24.835Z,97681.52
2018-03-22T10:40:54.881Z,97676.62
2018-03-22T10:43:24.730Z,97676.81
2018-03-22T10:45:55.637Z,97666.66
2018-03-22T10:48:26.001Z,97665.62
2018-03-22T10:50:56.770Z,97656.54
2018-03-22T10:53:29.547Z,97650.52
2018-03-22T10:56:00.484Z,97647.00
2018-03-22T10:58:31.710Z,97648.80
2018-03-22T11:01:08.460Z,97640.16
2018-03-22T11:03:44.222Z,97634.33
2018-03-22T11:06:14.520Z,97629.69
2018-03-22T11:08:46.975Z,97629.08
2018-03-22T11:11:18.230Z,97625.70
2018-03-22T11:13:50.065Z,97616.78
2018-03-22T11:16:22.269Z,97623.48
2018-03-22T11:18:55.226Z,97612.45
2018-03-22T11:21:26.162Z,97607.91
2018-03-22T11:24:16.492Z,97602.70
2018-03-22T11:26:49.816Z,97592.80
2018-03-22T11:29:24.705Z,97584.14
2018-03-22T11:32:18.893Z,97578.63
2018-03-22T11:34:49.307Z,97584.39
2018-03-22T11:40:29.796Z,97561.53
2018-03-22T11:42:59.717Z,97563.20
2018-03-22T11:45:30.937Z,97553.13
2018-03-22T11:48:01.722Z,97536.23
2018-03-22T11:50:31.933Z,97525.77
2018-03-22T11:53:02.576Z,97517.34
2018-03-22T11:55:33.524Z,97518.75
2018-03-22T11:58:04.652Z,97519.50
2018-03-22T12:00:38.887Z,97507.16
2018-03-22T12:03:09.810Z,97510.71
2018-03-22T12:05:40.546Z,97511.05
2018-03-22T12:08:13.615Z,97497.77
2018-03-22T12:10:43.660Z,97492.75
2018-03-22T12:13:15.344Z,97491.77
2018-03-22T12:15:46.426Z,97492.20
2018-03-22T12:18:16.070Z,97489.88
2018-03-22T12:20:47.013Z,97482.03
2018-03-22T12:23:18.463Z,97475.00
2018-03-22T12:25:50.165Z,97472.14
2018-03-22T12:28:20.179Z,97462.30
2018-03-22T12:30:51.438Z,97455.75
2018-03-22T12:33:21.860Z,97448.14
2018-03-22T12:35:52.059Z,97445.64
2018-03-22T12:38:22.146Z,97437.93
2018-03-22T12:40:53.040Z,97425.42
2018-03-22T12:43:23.844Z,97417.48
2018-03-22T12:45:54.983Z,97415.92
2018-03-22T12:48:25.726Z,97416.84
2018-03-22T12:50:57.483Z,97406.75
2018-03-22T12:53:27.273Z,97403.45
2018-03-22T12:55:57.415Z,97395.83
2018-03-22T12:58:27.555Z,97387.60
2018-03-22T13:00:58.466Z,97383.34
2018-03-22T13:03:30.358Z,97379.74
2018-03-22T13:06:03.032Z,97372.63
2018-03-22T13:08:34.960Z,97371.07
2018-03-22T13:11:05.301Z,97367.46
2018-03-22T13:13:35.269Z,97368.28
2018-03-22T13:16:07.612Z,97359.59
2018-03-22T13:18:38.394Z,97348.75
2018-03-22T13:21:12.616Z,97355.69
2018-03-22T13:23:42.393Z,97351.84
2018-03-22T13:26:14.145Z,97346.45
2018-03-22T13:28:44.337Z,97336.62
2018-03-22T13:31:15.452Z,97331.67
2018-03-22T13:33:49.509Z,97322.00
2018-03-22T13:36:22.926Z,97315.73
2018-03-22T13:38:54.228Z,97319.00
2018-03-22T13:41:26.118Z,97309.81
2018-03-22T13:43:55.855Z,97297.20
2018-03-22T13:46:26.433Z,97294.06
2018-03-22T13:48:56.203Z,97289.50
2018-03-22T13:51:26.152Z,97280.92
2018-03-22T13:53:56.653Z,97277.09
2018-03-22T13:56:27.452Z,97259.80
2018-03-22T13:58:57.651Z,97254.79
2018-03-22T14:01:28.507Z,97250.00
2018-03-22T14:03:58.821Z,97246.85
2018-03-22T14:06:29.789Z,97246.23
2018-03-22T14:08:59.559Z,97234.47
2018-03-22T14:11:30.232Z,97217.55
2018-03-22T14:14:00.676Z,97224.11
2018-03-22T14:16:31.727Z,97218.02
2018-03-22T14:19:06.801Z,97206.78
2018-03-22T14:21:37.621Z,97204.24
2018-03-22T14:24:08.614Z,97191.12
2018-03-22T14:26:39.653Z,97185.59
2018-03-22T14:29:09.618Z,97178.70
2018-03-22T14:31:39.467Z,97167.19
2018-03-22T14:34:09.481Z,97166.20
2018-03-22T14:36:40.934Z,97157.77
2018-03-22T14:42:25.507Z,97153.19
2018-03-22T14:44:57.793Z,97147.69
2018-03-22T14:47:28.809Z,97143.59
2018-03-22T14:50:01.341Z,97134.70
2018-03-22T14:52:32.556Z,97128.20
2018-03-22T14:55:03.336Z,97124.66
2018-03-22T14:57:33.438Z,97122.95
2018-03-22T15:00:03.895Z,97120.36
2018-03-22T15:02:33.788Z,97114.59
2018-03-22T15:05:03.850Z,97102.89
2018-03-22T15:07:45.125Z,97103.91
2018-03-22T15:10:18.754Z,97103.38
2018-03-22T15:12:49.368Z,97102.57
2018-03-22T15:15:22.376Z,97097.00
2018-03-22T15:17:53.604Z,97097.63
2018-03-22T15:20:24.544Z,97100.66
2018-03-22T15:22:54.538Z,97090.64
2018-03-22T15:25:25.942Z,97082.63
2018-03-22T15:27:58.327Z,97085.44
2018-03-22T15:30:29.636Z,97086.98
2018-03-22T15:33:00.438Z,97083.03
2018-03-22T15:35:36.300Z,97085.75
2018-03-22T15:38:11.282Z,97077.61
2018-03-22T15:40:43.532Z,97075.48
2018-03-22T15:43:15.130Z,97068.33
2018-03-22T15:45:45.730Z,97068.65
2018-03-22T15:48:19.264Z,97067.97
2018-03-22T15:50:57.524Z,97064.22
2018-03-22T15:53:32.326Z,97060.25
2018-03-22T15:56:02.987Z,97061.87
2018-03-22T15:58:37.294Z,97066.94
2018-03-22T16:01:10.545Z,97062.86
2018-03-22T16:03:41.961Z,97064.31
2018-03-22T16:06:12.612Z,97057.91
2018-03-22T16:08:42.642Z,97063.34
2018-03-22T16:11:13.149Z,97059.98
2018-03-22T16:13:43.406Z,97063.80
2018-03-22T16:16:14.079Z,97062.87
2018-03-22T16:18:45.653Z,97061.42
2018-03-22T16:21:22.702Z,97061.48
2018-03-22T16:23:55.169Z,97048.58
2018-03-22T16:26:25.068Z,97049.98
2018-03-22T16:28:58.585Z,97059.97
2018-03-22T16:31:30.167Z,97056.65
2018-03-22T16:34:00.092Z,97059.42
2018-03-22T16:36:33.051Z,97055.44
2018-03-22T16:39:04.055Z,97064.02
2018-03-22T16:41:35.830Z,97056.77
2018-03-22T16:44:06.369Z,97056.91
2018-03-22T16:46:37.315Z,97057.27
2018-03-22T16:49:07.830Z,97052.30
2018-03-22T16:51:41.014Z,97058.27
2018-03-22T16:54:13.628Z,97060.48
2018-03-22T16:56:43.368Z,97051.94
2018-03-22T16:59:14.086Z,97054.71
2018-03-22T17:01:44.019Z,97056.23
2018-03-22T17:04:16.245Z,97057.33
2018-03-22T17:06:47.156Z,97053.58
2018-03-22T17:09:18.130Z,97052.89
2018-03-22T17:11:48.963Z,97051.76
2018-03-22T17:14:18.946Z,97046.67
2018-03-22T17:16:49.156Z,97039.88
2018-03-22T17:19:19.865Z,97041.77
2018-03-22T17:21:52.603Z,97040.80
2018-03-22T17:24:24.221Z,97047.75
2018-03-22T17:26:54.804Z,97044.16
2018-03-22T17:29:24.947Z,97047.42
2018-03-22T17:31:55.475Z,97047.25
2018-03-22T17:34:26.356Z,97047.98
2018-03-22T17:37:18.365Z,97045.60
2018-03-22T17:39:50.809Z,97048.17
2018-03-22T17:42:23.068Z,97051.25
2018-03-22T17:44:56.371Z,97054.05
2018-03-22T17:47:36.498Z,97058.52
2018-03-22T17:50:06.276Z,97059.24
2018-03-22T17:52:36.030Z,97063.77
2018-03-22T17:55:07.681Z,97065.47
2018-03-22T17:57:39.427Z,97070.81
2018-03-22T18:00:13.928Z,97070.44
2018-03-22T18:02:49.998Z,97078.52
2018-03-22T18:05:23.779Z,97073.91
2018-03-22T18:08:28.145Z,97074.91
2018-03-22T18:11:02.702Z,97073.55
2018-03-22T18:13:34.066Z,97071.55
2018-03-22T18:16:06.005Z,97070.51
2018-03-22T18:18:39.134Z,97068.30
2018-03-22T18:21:26.661Z,97065.48
2018-03-22T18:24:00.813Z,97066.84
2018-03-22T18:26:31.082Z,97062.30
2018-03-22T18:29:01.921Z,97057.64
2018-03-22T18:31:34.237Z,97053.47
2018-03-22T18:34:05.714Z,97056.98
2018-03-22T18:36:37.330Z,97061.48
2018-03-22T18:39:08.188Z,97059.34
2018-03-22T18:41:39.794Z,97069.09
2018-03-22T18:44:11.889Z,97059.55
2018-03-22T18:46:42.273Z,97067.79
2018-03-22T18:49:17.139Z,97058.13
2018-03-22T18:51:47.773Z,97063.58
2018-03-22T18:54:18.952Z,97062.69
2018-03-22T18:56:50.117Z,97063.58
2018-03-22T18:59:20.895Z,97062.29
2018-03-22T19:01:50.788Z,97051.70
2018-03-22T19:04:20.785Z,97056.16
2018-03-22T19:06:51.960Z,97053.92
2018-03-22T19:09:33.146Z,97051.50
2018-03-22T19:12:03.900Z,97060.45
2018-03-22T19:14:34.594Z,97054.77
2018-03-22T19:17:06.937Z,97063.19
2018-03-22T19:19:38.301Z,97065.16
2018-03-22T19:22:08.254Z,97064.48
2018-03-22T19:24:39.635Z,97063.16
2018-03-22T19:27:10.887Z,97065.13
2018-03-22T19:29:42.585Z,97060.89
2018-03-22T19:32:15.377Z,97063.34
2018-03-22T19:34:48.955Z,97068.55
2018-03-22T19:37:21.776Z,97061.17
2018-03-22T19:39:54.708Z,97060.59
2018-03-22T19:42:24.935Z,97059.78
2018-03-22T19:44:55.746Z,97060.83
2018-03-22T19:47:26.053Z,97066.94
2018-03-22T19:49:57.823Z,97059.61
2018-03-22T19:52:28.114Z,97057.73
2018-03-22T19:55:00.067Z,97062.80
2018-03-22T19:57:31.446Z,97055.56
2018-03-22T20:00:01.135Z,97048.88
2018-03-22T20:02:32.493Z,97048.79
2018-03-22T20:05:05.452Z,97054.98
2018-03-22T20:07:36.420Z,97057.43
2018-03-22T20:10:07.581Z,97052.37
2018-03-22T20:12:40.881Z,97046.13
2018-03-22T20:15:14.366Z,97051.99
2018-03-22T20:17:46.663Z,97046.09
2018-03-22T20:20:18.118Z,97048.19
2018-03-22T20:22:50.058Z,97043.97
2018-03-22T20:25:22.093Z,97048.64
2018-03-22T20:27:56.556Z,97046.02
2018-03-22T20:30:26.759Z,97050.82
2018-03-22T20:33:00.564Z,97039.52
2018-03-22T20:35:31.652Z,97029.62
2018-03-22T20:38:02.468Z,97034.58
2018-03-22T20:40:34.328Z,97026.78
2018-03-22T20:43:05.457Z,97028.80
2018-03-22T20:45:36.673Z,97030.52
2018-03-22T20:48:07.454Z,97029.52
2018-03-22T20:50:42.359Z,97028.70
2018-03-22T20:53:15.094Z,97026.12
2018-03-22T20:55:46.171Z,97024.64
2018-03-22T20:58:22.094Z,97023.02
2018-03-22T21:00:53.704Z,97026.56
2018-03-22T21:03:25.215Z,97023.39
2018-03-22T21:05:55.894Z,97019.44
2018-03-22T21:08:27.537Z,97013.87
2018-03-22T21:10:59.016Z,97009.83
2018-03-22T21:13:31.761Z,97006.69
2018-03-22T21:16:03.842Z,97004.27
2018-03-22T21:18:34.217Z,97007.23
2018-03-22T21:21:18.014Z,97007.67
2018-03-22T21:23:50.322Z,97011.78
2018-03-22T21:26:22.217Z,97006.20
2018-03-22T21:28:54.937Z,97003.99
2018-03-22T21:31:24.628Z,97000.48
2018-03-22T21:33:55.204Z,96998.75
2018-03-22T21:36:26.972Z,96998.03
2018-03-22T21:38:57.009Z,96996.48
2018-03-22T21:41:28.643Z,96991.56
2018-03-22T21:44:16.778Z,97002.20
2018-03-22T21:46:47.780Z,96994.38
2018-03-22T21:49:19.278Z,96992.84
2018-03-22T21:54:56.584Z,96989.00
2018-03-22T21:57:26.815Z,96980.73
2018-03-22T21:59:58.872Z,96982.34
2018-03-22T22:02:28.649Z,96973.33
2018-03-22T22:05:00.640Z,96973.13
2018-03-22T22:07:33.608Z,96970.36
2018-03-22T22:10:05.136Z,96964.08
2018-03-22T22:12:42.568Z,96960.95
2018-03-22T22:15:15.402Z,96950.37
2018-03-22T22:17:47.620Z,96950.72
2018-03-22T22:20:18.075Z,96953.72
2018-03-22T22:22:48.383Z,96943.98
2018-03-22T22:25:18.739Z,96934.39
2018-03-22T22:27:49.687Z,96931.41
2018-03-22T22:30:20.962Z,96931.05
2018-03-22T22:35:49.814Z,96934.26
2018-03-22T22:38:20.338Z,96935.42
2018-03-22T22:41:12.603Z,96932.03
2018-03-22T22:43:53.847Z,96923.72
2018-03-22T22:46:24.673Z,96923.86
2018-03-22T22:48:54.783Z,96926.58
2018-03-22T22:51:26.432Z,96929.08
2018-03-22T22:53:57.450Z,96921.78
2018-03-22T22:56:30.245Z,96920.66
2018-03-22T22:59:01.748Z,96924.77
2018-03-22T23:01:32.051Z,96921.17
2018-03-22T23:04:02.775Z,96918.04
2018-03-22T23:06:33.867Z,96906.28
2018-03-22T23:09:06.110Z,96902.80
2018-03-22T23:11:46.507Z,96894.09
2018-03-22T23:14:23.653Z,96901.44
2018-03-22T23:16:54.773Z,96898.13
2018-03-22T23:19:24.990Z,96884.94
2018-03-22T23:21:55.760Z,96877.75
2018-03-22T23:24:28.293Z,96872.74
2018-03-22T23:27:02.803Z,96866.80
2018-03-22T23:29:34.005Z,96866.38
2018-03-22T23:32:04.612Z,96863.19
2018-03-22T23:34:35.386Z,96852.73
2018-03-22T23:37:06.670Z,96850.32
2018-03-22T23:39:41.789Z,96851.65
2018-03-22T23:42:23.628Z,96851.14
2018-03-22T23:44:54.845Z,96847.44
2018-03-22T23:47:26.931Z,96832.25
2018-03-22T23:49:56.908Z,96833.88
2018-03-22T23:52:32.038Z,96830.73
2018-03-22T23:55:04.210Z,96834.97
2018-03-22T23:57:35.009Z,96832.59
